createdAt,value
2023-01-29T08:52:03.096Z,35.65
2023-01-29T08:53:09.759Z,34.02
2023-01-29T08:54:12.207Z,32.55
2023-01-29T08:55:15.032Z,30.10
2023-01-29T08:56:17.647Z,30.12
2023-01-29T08:57:20.045Z,29.45
2023-01-29T08:58:22.435Z,30.33
2023-01-29T08:59:24.822Z,29.82
2023-01-29T09:00:27.200Z,29.48
2023-01-29T09:01:29.642Z,30.35
2023-01-29T09:02:32.315Z,32.30
2023-01-29T09:03:34.760Z,34.78
2023-01-29T09:04:37.157Z,34.95
2023-01-29T09:05:40.070Z,33.68
2023-01-29T09:06:42.517Z,31.18
2023-01-29T09:07:44.953Z,30.92
2023-01-29T09:08:48.035Z,32.03
2023-01-29T09:09:50.451Z,31.57
2023-01-29T09:10:52.820Z,32.17
2023-01-29T09:11:55.198Z,34.47
2023-01-29T09:12:57.609Z,33.12
2023-01-29T09:13:59.982Z,34.83
2023-01-29T09:15:02.435Z,37.63
2023-01-29T09:16:05.093Z,35.10
2023-01-29T09:17:07.456Z,32.65
2023-01-29T09:18:09.893Z,31.83
2023-01-29T09:19:12.314Z,34.52
2023-01-29T09:20:14.665Z,34.93
2023-01-29T09:21:17.136Z,35.33
2023-01-29T09:22:20.597Z,39.75
2023-01-29T09:25:22.616Z,37.65
2023-01-29T09:26:25.016Z,37.13
2023-01-29T09:27:27.480Z,34.97
2023-01-29T09:28:29.865Z,32.12
2023-01-29T09:31:09.482Z,30.67
2023-01-29T09:32:11.916Z,31.92
2023-01-29T09:33:14.349Z,33.48
2023-01-29T09:35:36.087Z,31.05
2023-01-29T09:36:38.468Z,30.90
2023-01-29T09:37:40.846Z,32.45
2023-01-29T09:40:05.428Z,28.13
2023-01-29T09:41:33.975Z,28.38
2023-01-29T09:42:49.280Z,27.55
2023-01-29T09:43:55.723Z,26.85
2023-01-29T09:45:16.608Z,27.88
2023-01-29T09:46:28.193Z,27.02
2023-01-29T09:47:33.793Z,25.97
2023-01-29T09:48:36.759Z,26.02
2023-01-29T09:49:47.752Z,26.22
2023-01-29T09:50:52.731Z,26.48
2023-01-29T09:52:25.263Z,26.28
2023-01-29T09:53:39.214Z,26.78
2023-01-29T09:55:05.926Z,26.80
2023-01-29T09:56:16.221Z,24.98
2023-01-29T09:57:25.800Z,24.43
2023-01-29T09:58:41.775Z,26.27
2023-01-29T09:59:44.182Z,27.02
2023-01-29T10:01:24.131Z,25.75
2023-01-29T10:02:41.438Z,26.40
2023-01-29T10:04:22.450Z,27.25
2023-01-29T10:05:33.674Z,32.42
2023-01-29T10:06:57.757Z,36.20
2023-01-29T10:08:25.018Z,40.00
2023-01-29T10:09:39.384Z,34.17
2023-01-29T10:10:55.720Z,34.90
2023-01-29T10:11:58.328Z,37.03
2023-01-29T10:13:07.962Z,35.60
2023-01-29T10:14:38.052Z,36.20
2023-01-29T10:15:56.697Z,37.55
2023-01-29T10:17:10.649Z,36.08
2023-01-29T10:18:25.237Z,34.23
2023-01-29T10:19:39.520Z,33.15
2023-01-29T10:20:50.774Z,32.83
2023-01-29T10:22:10.733Z,32.75
2023-01-29T10:23:23.750Z,27.12
2023-01-29T10:24:54.618Z,24.53
2023-01-29T10:25:57.061Z,25.28
2023-01-29T10:27:00.450Z,26.02
2023-01-29T10:28:02.852Z,26.10
2023-01-29T10:29:07.787Z,27.12
2023-01-29T10:30:22.636Z,28.68
2023-01-29T10:31:33.227Z,29.95
2023-01-29T10:32:37.650Z,28.87
2023-01-29T10:33:49.162Z,26.23
2023-01-29T10:35:00.963Z,26.60
2023-01-29T10:36:07.775Z,25.43
2023-01-29T10:37:19.470Z,33.20
2023-01-29T10:38:33.984Z,41.75
2023-01-29T10:39:36.392Z,35.97
2023-01-29T10:40:47.191Z,37.83
2023-01-29T10:42:07.140Z,32.35
2023-01-29T10:43:21.597Z,31.32
2023-01-29T10:44:43.237Z,31.35
2023-01-29T10:46:05.010Z,37.65
2023-01-29T10:47:15.200Z,35.63
2023-01-29T10:49:08.055Z,35.25
2023-01-29T10:50:33.401Z,29.07
2023-01-29T10:51:48.043Z,27.85
2023-01-29T10:53:05.648Z,26.07
2023-01-29T10:54:11.563Z,25.13
2023-01-29T10:55:28.664Z,26.03
2023-01-29T10:56:51.373Z,26.48
2023-01-29T10:58:18.063Z,25.88
2023-01-29T10:59:31.840Z,25.57
2023-01-29T11:00:38.505Z,25.40
2023-01-29T11:01:40.895Z,25.85
2023-01-29T11:02:51.145Z,26.30
2023-01-29T11:03:58.878Z,26.18
2023-01-29T11:05:01.632Z,27.82
2023-01-29T11:06:25.466Z,27.43
2023-01-29T11:07:28.413Z,27.20
2023-01-29T11:09:00.187Z,27.12
2023-01-29T11:10:15.453Z,25.57
2023-01-29T11:11:21.908Z,27.08
2023-01-29T11:12:30.712Z,25.95
2023-01-29T11:13:39.117Z,26.28
2023-01-29T11:14:59.191Z,29.28
2023-01-29T11:16:01.702Z,29.55
2023-01-29T11:17:04.590Z,30.25
2023-01-29T11:18:06.981Z,30.37
2023-01-29T11:19:09.938Z,30.33
2023-01-29T11:20:30.434Z,28.50
2023-01-29T11:21:32.773Z,26.88
2023-01-29T11:22:35.220Z,27.05
2023-01-29T11:23:37.581Z,27.12
2023-01-29T11:24:39.921Z,27.60
2023-01-29T11:25:52.827Z,27.38
2023-01-29T11:26:58.335Z,26.08
2023-01-29T11:28:02.205Z,27.20
2023-01-29T11:29:04.807Z,28.77
2023-01-29T11:30:16.628Z,28.58
2023-01-29T11:31:22.411Z,27.58
2023-01-29T11:32:26.856Z,29.03
2023-01-29T11:33:29.286Z,28.58
2023-01-29T11:34:31.635Z,29.00
2023-01-29T11:35:35.520Z,28.28
2023-01-29T11:36:39.798Z,27.73
2023-01-29T11:37:46.564Z,26.33
2023-01-29T11:39:15.915Z,29.40
2023-01-29T11:40:24.105Z,28.67
2023-01-29T11:41:26.647Z,24.27
2023-01-29T11:42:31.665Z,24.68
2023-01-29T11:43:34.023Z,23.20
2023-01-29T11:44:45.452Z,25.75
2023-01-29T11:45:54.365Z,28.03
2023-01-29T11:47:19.942Z,28.18
2023-01-29T11:48:26.012Z,26.03
2023-01-29T11:49:33.898Z,24.28
2023-01-29T11:50:36.321Z,23.63
2023-01-29T11:51:40.618Z,25.17
2023-01-29T11:52:43.724Z,24.73
2023-01-29T11:54:10.543Z,26.72
2023-01-29T11:55:19.689Z,24.95
2023-01-29T11:56:24.367Z,26.82
2023-01-29T11:57:30.883Z,27.30
2023-01-29T11:58:35.943Z,26.33
2023-01-29T11:59:49.111Z,25.93
2023-01-29T12:00:53.697Z,25.42
2023-01-29T12:01:56.920Z,22.83
2023-01-29T12:03:11.424Z,23.35
2023-01-29T12:04:21.964Z,24.45
2023-01-29T12:05:26.207Z,25.08
2023-01-29T12:06:37.043Z,23.88
2023-01-29T12:07:45.980Z,24.03
2023-01-29T12:09:01.130Z,25.22
2023-01-29T12:10:03.815Z,24.60
2023-01-29T12:11:16.494Z,25.12
2023-01-29T12:12:31.603Z,24.62
2023-01-29T12:13:36.094Z,24.07
2023-01-29T12:14:38.849Z,24.22
2023-01-29T12:15:42.833Z,25.48
2023-01-29T12:16:57.195Z,26.82
2023-01-29T12:18:23.876Z,24.30
2023-01-29T12:19:43.860Z,25.03
2023-01-29T12:21:00.332Z,24.62
2023-01-29T12:22:20.764Z,23.65
2023-01-29T12:23:41.329Z,25.32
2023-01-29T12:25:04.508Z,25.95
2023-01-29T12:26:12.990Z,25.23
2023-01-29T12:27:24.170Z,22.83
2023-01-29T12:28:51.287Z,22.30
2023-01-29T12:30:02.611Z,25.23
2023-01-29T12:31:40.759Z,26.57
2023-01-29T12:33:04.220Z,25.50
2023-01-29T12:34:35.389Z,23.98
2023-01-29T12:35:44.485Z,24.48
2023-01-29T12:36:58.898Z,24.23
2023-01-29T12:38:20.999Z,24.38
2023-01-29T12:39:23.345Z,26.50
2023-01-29T12:40:31.735Z,50.35
2023-01-29T12:41:39.701Z,42.62
2023-01-29T12:42:46.526Z,28.10
2023-01-29T12:43:54.021Z,26.42
2023-01-29T12:45:00.089Z,26.63
2023-01-29T12:46:02.887Z,27.23
2023-01-29T12:47:08.596Z,25.18
2023-01-29T12:48:14.869Z,24.75
2023-01-29T12:49:22.488Z,29.20
2023-01-29T12:50:33.707Z,28.88
2023-01-29T12:51:45.982Z,28.75
2023-01-29T12:52:58.691Z,30.95
2023-01-29T12:54:05.629Z,29.83
2023-01-29T12:55:19.895Z,28.98
2023-01-29T12:56:40.148Z,28.23
2023-01-29T12:57:43.883Z,26.58
2023-01-29T12:58:50.598Z,27.58
2023-01-29T13:00:08.358Z,29.27
2023-01-29T13:01:26.960Z,28.77
2023-01-29T13:02:34.976Z,29.57
2023-01-29T13:03:53.498Z,27.85
2023-01-29T13:05:14.104Z,28.70
2023-01-29T13:06:25.710Z,25.65
2023-01-29T13:07:40.172Z,25.75
2023-01-29T13:08:49.636Z,27.17
2023-01-29T13:09:57.579Z,26.13
2023-01-29T13:11:03.295Z,28.23
2023-01-29T13:12:13.778Z,29.25
2023-01-29T13:13:33.271Z,25.00
2023-01-29T13:14:52.951Z,24.77
2023-01-29T13:15:56.853Z,23.48
2023-01-29T13:17:26.899Z,21.62
2023-01-29T13:18:46.656Z,25.00
2023-01-29T13:19:55.662Z,24.67
2023-01-29T13:21:00.018Z,22.92
2023-01-29T13:22:05.538Z,22.95
2023-01-29T13:23:21.482Z,24.48
2023-01-29T13:24:26.222Z,24.02
2023-01-29T13:25:28.564Z,21.02
2023-01-29T13:26:31.939Z,21.02
2023-01-29T13:27:36.334Z,20.77
2023-01-29T13:28:39.879Z,21.38
2023-01-29T13:29:44.385Z,20.27
2023-01-29T13:30:47.796Z,21.82
2023-01-29T13:31:52.012Z,20.28
2023-01-29T13:33:09.201Z,21.17
2023-01-29T13:34:22.478Z,20.95
2023-01-29T13:35:24.909Z,20.87
2023-01-29T13:36:29.741Z,21.57
2023-01-29T13:37:35.260Z,20.43
2023-01-29T13:38:37.707Z,19.73
2023-01-29T13:39:47.872Z,20.55
2023-01-29T13:40:50.977Z,21.37
2023-01-29T13:41:54.844Z,22.15
2023-01-29T13:43:00.188Z,22.62
2023-01-29T13:44:05.129Z,23.07
2023-01-29T13:45:09.380Z,23.22
2023-01-29T13:46:15.683Z,24.95
2023-01-29T13:47:27.619Z,24.10
2023-01-29T13:48:37.088Z,21.15
2023-01-29T13:49:43.620Z,21.10
2023-01-29T13:50:47.069Z,22.35
2023-01-29T13:51:49.556Z,22.82
2023-01-29T13:52:58.239Z,22.22
2023-01-29T13:54:04.890Z,23.82
2023-01-29T13:55:09.824Z,26.17
2023-01-29T13:56:33.654Z,23.97
2023-01-29T13:57:44.859Z,23.97
2023-01-29T13:58:47.123Z,25.00
2023-01-29T13:59:53.202Z,22.05
2023-01-29T14:00:56.243Z,20.00
2023-01-29T14:02:04.093Z,19.77
2023-01-29T14:03:11.758Z,19.05
2023-01-29T14:04:24.133Z,20.50
2023-01-29T14:05:29.567Z,21.47
2023-01-29T14:06:45.848Z,21.27
2023-01-29T14:07:50.241Z,21.62
2023-01-29T14:08:52.639Z,21.98
2023-01-29T14:10:16.253Z,22.08
2023-01-29T14:11:21.941Z,23.32
2023-01-29T14:12:24.553Z,24.25
2023-01-29T14:13:28.115Z,28.90
2023-01-29T14:14:48.690Z,27.52
2023-01-29T14:15:57.109Z,25.88
2023-01-29T14:17:03.460Z,27.15
2023-01-29T14:18:08.860Z,28.82
2023-01-29T14:19:18.504Z,27.35
2023-01-29T14:20:27.731Z,25.67
2023-01-29T14:21:36.452Z,28.85
2023-01-29T14:22:38.833Z,30.95
2023-01-29T14:23:46.710Z,33.57
2023-01-29T14:24:53.380Z,29.80
2023-01-29T14:25:56.945Z,27.38
2023-01-29T14:26:59.573Z,29.87
2023-01-29T14:28:03.495Z,28.63
2023-01-29T14:29:38.134Z,23.73
2023-01-29T14:30:47.020Z,21.18
2023-01-29T14:32:00.725Z,24.13
2023-01-29T14:33:03.570Z,30.90
2023-01-29T14:34:13.989Z,32.48
2023-01-29T14:35:33.343Z,31.60
2023-01-29T14:36:43.537Z,23.95
2023-01-29T14:37:48.142Z,22.02
2023-01-29T14:38:52.648Z,22.10
2023-01-29T14:39:59.968Z,23.80
2023-01-29T14:41:07.460Z,24.98
2023-01-29T14:42:22.119Z,25.45
2023-01-29T14:43:24.537Z,28.23
2023-01-29T14:44:45.577Z,29.73
2023-01-29T14:45:49.412Z,34.80
2023-01-29T14:46:53.039Z,36.52
2023-01-29T14:48:00.179Z,43.25
2023-01-29T14:49:03.116Z,42.82
2023-01-29T14:50:30.033Z,35.58
2023-01-29T14:51:37.612Z,33.08
2023-01-29T14:52:42.767Z,29.08
2023-01-29T14:54:06.908Z,24.17
2023-01-29T14:55:19.493Z,23.75
2023-01-29T14:56:32.665Z,23.33
2023-01-29T14:57:36.273Z,23.75
2023-01-29T14:58:43.989Z,27.23
2023-01-29T14:59:49.365Z,26.07
2023-01-29T15:00:55.344Z,26.28
2023-01-29T15:02:02.059Z,24.75
2023-01-29T15:03:26.873Z,25.12
2023-01-29T15:04:39.111Z,27.30
2023-01-29T15:05:42.397Z,29.25
2023-01-29T15:06:53.103Z,29.93
2023-01-29T15:07:59.045Z,29.78
2023-01-29T15:09:05.833Z,29.22
2023-01-29T15:10:25.552Z,36.70
2023-01-29T15:11:34.593Z,49.82
2023-01-29T15:12:50.394Z,54.35
2023-01-29T15:13:58.760Z,52.98
2023-01-29T15:15:21.941Z,55.87
2023-01-29T15:16:46.108Z,59.15
2023-01-29T15:18:30.041Z,56.20
2023-01-29T15:19:48.092Z,43.88
2023-01-29T15:20:50.573Z,50.57
2023-01-29T15:22:03.353Z,56.22
2023-01-29T15:23:27.935Z,46.92
2023-01-29T15:24:30.337Z,42.77
2023-01-29T15:25:37.007Z,38.92
2023-01-29T15:26:43.206Z,39.98
2023-01-29T15:27:45.814Z,39.72
2023-01-29T15:29:03.564Z,41.57
2023-01-29T15:30:08.293Z,40.97
2023-01-29T15:31:17.207Z,41.35
2023-01-29T15:32:29.807Z,39.57
2023-01-29T15:33:34.119Z,33.78
2023-01-29T15:34:36.548Z,35.98
2023-01-29T15:35:41.110Z,38.13
2023-01-29T15:36:43.480Z,42.30
2023-01-29T15:38:07.956Z,47.37
2023-01-29T15:39:14.903Z,46.20
2023-01-29T15:40:18.043Z,44.97
2023-01-29T15:41:23.810Z,47.90
2023-01-29T15:42:34.447Z,47.58
2023-01-29T15:43:37.748Z,46.97
2023-01-29T15:44:45.718Z,46.17
2023-01-29T15:45:49.599Z,47.52
2023-01-29T15:46:55.998Z,47.60
2023-01-29T15:48:08.604Z,49.72
2023-01-29T15:49:29.071Z,55.82
2023-01-29T15:50:36.312Z,51.98
2023-01-29T15:51:39.147Z,47.02
2023-01-29T15:52:41.522Z,43.78
2023-01-29T15:53:56.887Z,43.30
2023-01-29T15:55:04.165Z,37.68
2023-01-29T15:56:11.543Z,33.30
2023-01-29T15:57:25.449Z,30.98
2023-01-29T15:58:32.424Z,27.95
2023-01-29T15:59:42.300Z,26.07
2023-01-29T16:00:53.441Z,23.40
2023-01-29T16:01:56.487Z,22.65
2023-01-29T16:03:01.521Z,22.65
2023-01-29T16:04:04.555Z,22.37
2023-01-29T16:05:14.193Z,22.85
2023-01-29T16:06:17.094Z,28.72
2023-01-29T16:07:21.085Z,35.35
2023-01-29T16:08:25.458Z,41.15
2023-01-29T16:09:29.038Z,40.85
2023-01-29T16:10:32.702Z,41.82
2023-01-29T16:11:35.766Z,41.43
2023-01-29T16:12:38.428Z,41.15
2023-01-29T16:13:43.433Z,44.62
2023-01-29T16:14:46.213Z,45.92
2023-01-29T16:16:17.365Z,49.30
2023-01-29T16:17:40.314Z,49.15
2023-01-29T16:18:58.823Z,47.60
2023-01-29T16:20:07.125Z,46.15
2023-01-29T16:21:26.752Z,44.57
2023-01-29T16:22:37.532Z,42.95
2023-01-29T16:23:48.964Z,45.53
2023-01-29T16:24:53.242Z,46.00
2023-01-29T16:26:01.710Z,51.12
2023-01-29T16:27:13.796Z,60.68
2023-01-29T16:28:17.645Z,69.37
2023-01-29T16:29:23.679Z,70.33
2023-01-29T16:30:27.952Z,74.45
2023-01-29T16:31:32.303Z,72.18
2023-01-29T16:32:35.600Z,58.28
2023-01-29T16:33:41.269Z,54.82
2023-01-29T16:34:45.843Z,50.03
2023-01-29T16:35:52.471Z,47.58
2023-01-29T16:36:55.632Z,55.83
2023-01-29T16:38:03.408Z,68.63
2023-01-29T16:39:17.341Z,70.25
2023-01-29T16:40:34.704Z,65.95
2023-01-29T16:41:38.555Z,62.58
2023-01-29T16:42:41.736Z,61.17
2023-01-29T16:43:44.021Z,59.50
2023-01-29T16:44:50.839Z,55.03
2023-01-29T16:46:16.070Z,56.47
2023-01-29T16:47:32.211Z,57.62
2023-01-29T16:48:35.135Z,62.82
2023-01-29T16:49:38.239Z,63.20
2023-01-29T16:50:54.030Z,69.55
2023-01-29T16:52:25.263Z,76.95
2023-01-29T16:53:28.365Z,80.95
2023-01-29T16:54:30.727Z,82.48
2023-01-29T16:55:39.942Z,81.20
2023-01-29T16:56:45.421Z,79.65
2023-01-29T16:57:53.840Z,77.47
2023-01-29T16:58:57.348Z,70.18
2023-01-29T17:00:04.175Z,76.13
2023-01-29T17:01:11.101Z,77.32
2023-01-29T17:02:29.375Z,73.52
2023-01-29T17:03:34.097Z,75.98
2023-01-29T17:04:36.468Z,79.42
2023-01-29T17:05:39.024Z,81.75
2023-01-29T17:06:56.426Z,81.47
2023-01-29T17:08:00.379Z,77.67
2023-01-29T17:09:04.235Z,79.12
2023-01-29T17:10:07.671Z,75.05
2023-01-29T17:11:11.970Z,66.05
2023-01-29T17:12:20.242Z,63.03
2023-01-29T17:13:34.588Z,57.87
2023-01-29T17:14:38.695Z,58.87
2023-01-29T17:15:47.560Z,61.42
2023-01-29T17:17:02.996Z,58.72
2023-01-29T17:18:15.681Z,59.57
2023-01-29T17:19:20.906Z,55.60
2023-01-29T17:20:23.740Z,52.83
2023-01-29T17:21:26.912Z,53.62
2023-01-29T17:22:29.307Z,49.35
2023-01-29T17:23:31.673Z,46.65
2023-01-29T17:24:35.064Z,50.63
2023-01-29T17:25:37.908Z,53.90
2023-01-29T17:26:40.746Z,59.05
2023-01-29T17:27:51.437Z,62.62
2023-01-29T17:28:55.061Z,64.05
2023-01-29T17:29:57.732Z,58.90
2023-01-29T17:31:06.353Z,60.25
2023-01-29T17:32:10.200Z,77.22
2023-01-29T17:33:15.197Z,79.28
2023-01-29T17:34:18.773Z,66.67
2023-01-29T17:35:21.530Z,62.53
2023-01-29T17:36:23.994Z,55.77
2023-01-29T17:37:26.363Z,51.28
2023-01-29T17:38:28.824Z,48.27
2023-01-29T17:39:31.591Z,50.52
2023-01-29T17:40:39.703Z,60.53
2023-01-29T17:41:47.306Z,66.00
2023-01-29T17:42:49.740Z,59.72
2023-01-29T17:43:52.284Z,69.97
2023-01-29T17:44:54.741Z,77.55
2023-01-29T17:45:57.229Z,74.25
2023-01-29T17:46:59.873Z,68.68
2023-01-29T17:48:02.267Z,60.02
2023-01-29T17:49:19.138Z,54.42
2023-01-29T17:50:25.047Z,51.32
2023-01-29T17:51:27.435Z,48.52
2023-01-29T17:52:30.003Z,49.23
2023-01-29T17:53:44.795Z,47.50
2023-01-29T17:54:48.641Z,47.78
2023-01-29T17:55:52.288Z,47.95
2023-01-29T17:56:54.729Z,48.83
2023-01-29T17:57:57.208Z,51.85
2023-01-29T17:58:59.945Z,50.67
2023-01-29T18:00:02.317Z,49.12
2023-01-29T18:01:04.799Z,50.62
2023-01-29T18:02:07.150Z,49.52
2023-01-29T18:03:09.517Z,48.57
2023-01-29T18:04:12.243Z,48.70
2023-01-29T18:05:16.399Z,46.73
2023-01-29T18:06:29.544Z,44.33
2023-01-29T18:07:32.391Z,43.47
2023-01-29T18:08:37.709Z,42.92
2023-01-29T18:09:41.677Z,41.78
2023-01-29T18:10:46.614Z,40.40
2023-01-29T18:11:50.311Z,38.22
2023-01-29T18:12:52.684Z,38.18
2023-01-29T18:13:56.193Z,39.18
2023-01-29T18:14:58.585Z,40.45
2023-01-29T18:16:01.200Z,51.62
2023-01-29T18:17:03.600Z,60.17
2023-01-29T18:18:06.649Z,72.08
2023-01-29T18:19:31.232Z,73.60
2023-01-29T18:20:36.807Z,68.82
2023-01-29T18:21:39.172Z,64.65
2023-01-29T18:22:41.573Z,62.80
2023-01-29T18:23:46.792Z,59.92
2023-01-29T18:24:49.256Z,54.20
2023-01-29T18:25:52.920Z,54.77
2023-01-29T18:26:55.272Z,54.83
2023-01-29T18:27:58.079Z,51.73
2023-01-29T18:29:00.847Z,48.92
2023-01-29T18:30:04.911Z,48.05
2023-01-29T18:31:07.267Z,50.85
2023-01-29T18:32:10.424Z,51.13
2023-01-29T18:33:13.811Z,51.08
2023-01-29T18:34:16.515Z,53.53
2023-01-29T18:35:19.329Z,52.80
2023-01-29T18:36:22.142Z,53.55
2023-01-29T18:37:24.690Z,51.10
2023-01-29T18:38:27.599Z,52.70
2023-01-29T18:39:30.004Z,51.97
2023-01-29T18:40:33.053Z,48.18
2023-01-29T18:41:35.411Z,44.93
2023-01-29T18:42:37.785Z,42.65
2023-01-29T18:43:41.594Z,41.72
2023-01-29T18:44:43.979Z,41.20
2023-01-29T18:45:46.690Z,41.77
2023-01-29T18:46:50.055Z,42.38
2023-01-29T18:48:13.460Z,41.65
2023-01-29T18:49:39.259Z,46.58
2023-01-29T18:50:41.714Z,45.98
2023-01-29T18:51:44.213Z,48.63
2023-01-29T18:52:46.808Z,46.27
2023-01-29T18:53:50.987Z,43.45
2023-01-29T18:54:53.873Z,44.60
2023-01-29T18:55:58.355Z,44.15
2023-01-29T18:57:11.146Z,45.52
2023-01-29T18:58:33.466Z,46.43
2023-01-29T18:59:43.174Z,46.97
2023-01-29T19:00:49.943Z,48.97
2023-01-29T19:01:52.470Z,51.28
2023-01-29T19:02:55.259Z,53.30
2023-01-29T19:03:59.814Z,54.47
2023-01-29T19:05:02.249Z,57.40
2023-01-29T19:06:07.103Z,57.23
2023-01-29T19:07:10.813Z,55.57
2023-01-29T19:08:15.068Z,53.67
2023-01-29T19:09:17.776Z,54.15
2023-01-29T19:10:20.238Z,54.92
2023-01-29T19:11:23.074Z,57.08
2023-01-29T19:12:25.595Z,57.58
2023-01-29T19:13:32.254Z,59.37
2023-01-29T19:14:34.724Z,60.22
2023-01-29T19:15:37.193Z,58.27
2023-01-29T19:16:39.611Z,59.62
2023-01-29T19:17:42.073Z,61.82
2023-01-29T19:18:44.713Z,57.32
2023-01-29T19:19:47.049Z,54.00
2023-01-29T19:20:50.246Z,51.98
2023-01-29T19:21:53.612Z,50.03
2023-01-29T19:22:56.285Z,51.65
2023-01-29T19:24:00.725Z,53.48
2023-01-29T19:25:04.305Z,52.40
2023-01-29T19:26:07.087Z,50.78
2023-01-29T19:27:09.911Z,47.05
2023-01-29T19:28:12.407Z,43.17
2023-01-29T19:29:15.151Z,42.02
2023-01-29T19:30:17.939Z,39.93
2023-01-29T19:31:20.937Z,39.90
2023-01-29T19:32:25.178Z,39.03
2023-01-29T19:33:28.485Z,36.75
2023-01-29T19:34:31.744Z,35.15
2023-01-29T19:35:34.276Z,35.90
2023-01-29T19:36:37.308Z,36.17
2023-01-29T19:37:40.641Z,37.43
2023-01-29T19:38:43.273Z,37.82
2023-01-29T19:39:46.194Z,39.42
2023-01-29T19:40:49.097Z,39.40
2023-01-29T19:41:52.711Z,39.17
2023-01-29T19:42:57.121Z,39.37
2023-01-29T19:44:00.393Z,40.68
2023-01-29T19:45:05.654Z,38.12
2023-01-29T19:46:08.112Z,38.77
2023-01-29T19:47:10.532Z,40.75
2023-01-29T19:48:14.493Z,40.65
2023-01-29T19:49:17.003Z,43.03
2023-01-29T19:50:19.393Z,46.43
2023-01-29T19:51:23.572Z,48.00
2023-01-29T19:52:50.369Z,47.83
2023-01-29T19:53:56.031Z,46.23
2023-01-29T19:54:58.412Z,46.43
2023-01-29T19:56:06.158Z,44.68
2023-01-29T19:57:09.156Z,46.65
2023-01-29T19:58:11.866Z,48.13
2023-01-29T19:59:14.271Z,45.17
2023-01-29T20:00:18.271Z,45.60
2023-01-29T20:01:21.790Z,43.32
2023-01-29T20:02:25.072Z,44.02
2023-01-29T20:03:29.518Z,42.45
2023-01-29T20:04:32.116Z,42.43
2023-01-29T20:05:36.383Z,41.98
2023-01-29T20:06:38.842Z,41.53
2023-01-29T20:07:42.470Z,40.38
2023-01-29T20:08:46.424Z,40.25
2023-01-29T20:09:50.854Z,39.70
2023-01-29T20:10:54.261Z,40.22
2023-01-29T20:11:56.792Z,41.80
2023-01-29T20:12:59.366Z,41.47
2023-01-29T20:14:01.829Z,43.78
2023-01-29T20:15:04.813Z,42.20
2023-01-29T20:16:07.741Z,43.25
2023-01-29T20:17:10.183Z,42.17
2023-01-29T20:18:13.820Z,39.55
2023-01-29T20:19:16.351Z,40.02
2023-01-29T20:20:19.196Z,39.02
2023-01-29T20:21:22.704Z,40.13
2023-01-29T20:22:26.944Z,39.68
2023-01-29T20:23:37.502Z,39.38
2023-01-29T20:24:42.664Z,40.28
2023-01-29T20:25:46.394Z,39.62
2023-01-29T20:26:49.459Z,40.00
2023-01-29T20:27:53.279Z,39.37
2023-01-29T20:28:55.759Z,40.77
2023-01-29T20:29:58.470Z,40.80
2023-01-29T20:31:01.006Z,41.63
2023-01-29T20:32:04.604Z,42.95
2023-01-29T20:33:07.441Z,46.92
2023-01-29T20:34:10.181Z,52.60
2023-01-29T20:35:12.755Z,56.12
2023-01-29T20:36:15.573Z,50.53
2023-01-29T20:37:18.876Z,47.05
2023-01-29T20:38:21.432Z,45.80
2023-01-29T20:39:23.800Z,41.10
2023-01-29T20:40:26.598Z,40.12
2023-01-29T20:41:29.113Z,40.87
2023-01-29T20:42:31.565Z,42.17
2023-01-29T20:43:34.660Z,40.85
2023-01-29T20:44:36.999Z,39.50
2023-01-29T20:45:39.971Z,38.12
2023-01-29T20:46:42.929Z,38.70
2023-01-29T20:47:45.598Z,39.83
2023-01-29T20:48:49.330Z,39.90
2023-01-29T20:49:52.027Z,40.53
2023-01-29T20:50:57.114Z,42.37
2023-01-29T20:52:02.077Z,41.22
2023-01-29T20:53:04.450Z,41.30
2023-01-29T20:54:06.988Z,39.93
2023-01-29T20:55:11.164Z,39.57
2023-01-29T20:56:15.568Z,40.05
2023-01-29T20:57:18.110Z,39.27
2023-01-29T20:58:21.136Z,39.80
2023-01-29T20:59:23.553Z,38.93
2023-01-29T21:00:26.090Z,40.47
2023-01-29T21:01:29.603Z,41.42
2023-01-29T21:02:34.193Z,42.80
2023-01-29T21:03:37.170Z,43.28
2023-01-29T21:04:40.173Z,44.17
2023-01-29T21:05:43.146Z,42.98
2023-01-29T21:06:46.704Z,42.15
2023-01-29T21:07:52.741Z,40.85
2023-01-29T21:08:55.734Z,41.78
2023-01-29T21:09:58.246Z,40.38
2023-01-29T21:11:04.190Z,41.00
2023-01-29T21:12:07.947Z,40.05
2023-01-29T21:13:10.761Z,39.48
2023-01-29T21:14:14.542Z,41.43
2023-01-29T21:15:17.055Z,40.42
2023-01-29T21:16:19.642Z,38.15
2023-01-29T21:17:22.076Z,38.45
2023-01-29T21:18:26.404Z,37.75
2023-01-29T21:19:29.097Z,39.38
2023-01-29T21:20:32.909Z,40.12
2023-01-29T21:21:35.331Z,41.13
2023-01-29T21:22:37.735Z,43.38
2023-01-29T21:23:40.185Z,42.47
2023-01-29T21:24:42.721Z,42.12
2023-01-29T21:25:45.384Z,42.08
2023-01-29T21:26:48.138Z,43.87
2023-01-29T21:27:50.911Z,43.10
2023-01-29T21:28:53.759Z,42.80
2023-01-29T21:29:57.316Z,42.42
2023-01-29T21:31:18.062Z,39.35
2023-01-29T21:32:21.450Z,42.05
2023-01-29T21:33:24.468Z,41.95
2023-01-29T21:34:26.872Z,43.15
2023-01-29T21:35:29.209Z,44.82
2023-01-29T21:36:32.426Z,42.58
2023-01-29T21:37:38.433Z,42.12
2023-01-29T21:38:41.356Z,40.83
2023-01-29T21:39:43.865Z,42.60
2023-01-29T21:40:46.239Z,44.50
2023-01-29T21:42:09.060Z,43.08
2023-01-29T21:43:11.574Z,42.02
2023-01-29T21:44:13.936Z,43.47
2023-01-29T21:45:16.545Z,44.57
2023-01-29T21:46:18.919Z,44.73
2023-01-29T21:47:22.369Z,43.28
2023-01-29T21:48:25.189Z,45.67
2023-01-29T21:49:27.811Z,46.03
2023-01-29T21:50:30.724Z,45.15
2023-01-29T21:51:33.151Z,46.15
2023-01-29T21:52:35.548Z,44.80
2023-01-29T21:53:38.066Z,44.63
2023-01-29T21:54:41.080Z,46.23
2023-01-29T21:55:44.371Z,44.75
2023-01-29T21:56:46.826Z,45.28
2023-01-29T21:57:49.308Z,44.10
2023-01-29T21:58:52.112Z,43.02
2023-01-29T21:59:55.048Z,42.40
2023-01-29T22:00:57.479Z,41.37
2023-01-29T22:02:20.304Z,39.67
2023-01-29T22:03:23.303Z,41.23
2023-01-29T22:04:26.300Z,39.35
2023-01-29T22:05:31.568Z,39.72
2023-01-29T22:06:33.994Z,38.98
2023-01-29T22:07:37.490Z,38.57
2023-01-29T22:08:39.989Z,38.50
2023-01-29T22:09:42.738Z,37.73
2023-01-29T22:10:45.491Z,37.62
2023-01-29T22:11:48.272Z,37.55
2023-01-29T22:12:50.645Z,37.13
2023-01-29T22:13:53.101Z,37.73
2023-01-29T22:14:55.519Z,38.55
2023-01-29T22:16:00.936Z,38.87
2023-01-29T22:17:04.096Z,38.42
2023-01-29T22:18:06.541Z,40.18
2023-01-29T22:19:08.923Z,38.85
2023-01-29T22:20:13.123Z,38.17
2023-01-29T22:21:15.539Z,37.57
2023-01-29T22:22:18.521Z,39.43
2023-01-29T22:23:21.761Z,41.18
2023-01-29T22:24:24.305Z,42.05
2023-01-29T22:25:26.971Z,44.45
2023-01-29T22:26:30.837Z,45.38
2023-01-29T22:27:34.040Z,44.10
2023-01-29T22:28:39.166Z,41.70
2023-01-29T22:29:42.274Z,40.95
2023-01-29T22:30:45.417Z,41.37
2023-01-29T22:31:50.432Z,40.23
2023-01-29T22:32:52.918Z,39.68
2023-01-29T22:33:55.434Z,40.48
2023-01-29T22:35:00.904Z,41.42
2023-01-29T22:36:03.948Z,39.92
2023-01-29T22:37:06.481Z,39.58
2023-01-29T22:38:08.850Z,41.28
2023-01-29T22:39:11.368Z,39.72
2023-01-29T22:40:14.047Z,40.05
2023-01-29T22:41:16.500Z,38.77
2023-01-29T22:42:20.556Z,38.68
2023-01-29T22:43:24.511Z,38.37
2023-01-29T22:44:26.885Z,39.75
2023-01-29T22:45:29.326Z,42.17
2023-01-29T22:46:31.832Z,42.58
2023-01-29T22:47:34.257Z,41.70
2023-01-29T22:48:36.663Z,41.87
2023-01-29T22:49:39.065Z,40.48
2023-01-29T22:50:41.915Z,41.02
2023-01-29T22:51:44.427Z,41.62
2023-01-29T22:52:53.661Z,40.15
2023-01-29T22:53:57.271Z,39.68
2023-01-29T22:54:59.682Z,41.95
2023-01-29T22:56:02.245Z,41.05
2023-01-29T22:57:05.458Z,39.62
2023-01-29T22:58:07.850Z,40.13
2023-01-29T22:59:10.932Z,41.23
2023-01-29T23:00:13.617Z,40.13
2023-01-29T23:01:19.182Z,39.43
2023-01-29T23:02:21.576Z,41.93
2023-01-29T23:03:24.016Z,41.63
2023-01-29T23:04:26.438Z,40.82
2023-01-29T23:05:28.840Z,42.02
2023-01-29T23:06:31.181Z,41.55
2023-01-29T23:07:33.801Z,42.18
2023-01-29T23:08:36.210Z,40.28
2023-01-29T23:09:38.653Z,41.50
2023-01-29T23:10:41.073Z,42.00
2023-01-29T23:11:43.454Z,42.90
2023-01-29T23:12:45.835Z,43.12
2023-01-29T23:13:51.185Z,42.48
2023-01-29T23:14:53.606Z,41.92
2023-01-29T23:15:59.725Z,42.83
2023-01-29T23:17:02.185Z,41.98
2023-01-29T23:18:05.244Z,41.00
2023-01-29T23:19:08.558Z,41.33
2023-01-29T23:20:11.606Z,41.48
2023-01-29T23:21:14.017Z,42.95
2023-01-29T23:22:16.439Z,42.05